This is the latest recevied weather packets stored in our database for station/object JQ2GLP-13. If no packets are shown the sender has not sent any weather packets the latest 10 day(s).
| Time | Temp. | Humidity | Pressure | Rain* | Wind** | Luminosity | Snow |
|---|---|---|---|---|---|---|---|
| 1778155632 | 19.44° C | 76% | 1006.7 hPa | 0 mm | - | - | - |
| 1778150233 | 19.44° C | 75% | 1006.2 hPa | 0 mm | - | - | - |
| 1778148434 | 20° C | 73% | 1006.1 hPa | 0 mm | - | - | - |
| 1778146633 | 21.11° C | 68% | 1005.9 hPa | 0 mm | - | - | - |
| 1778144833 | 22.22° C | 63% | 1005.4 hPa | 0 mm | - | - | - |
| 1778143034 | 23.33° C | 59% | 1005 hPa | 0 mm | - | - | - |
| 1778141234 | 23.89° C | 56% | 1004.9 hPa | 0 mm | - | - | - |
| 1778137633 | 24.44° C | 52% | 1005.1 hPa | 0 mm | - | - | - |
| 1778130434 | 26.11° C | 49% | 1005.9 hPa | 0 mm | - | - | - |
| 1778128637 | 26.11° C | 50% | 1006.2 hPa | 0 mm | - | - | - |
| 1778126835 | 26.67° C | 48% | 1006.3 hPa | 0 mm | - | - | - |
| 1778125036 | 27.22° C | 47% | 1006.7 hPa | 0 mm | - | - | - |
| 1778123234 | 26.11° C | 49% | 1007.2 hPa | 0 mm | - | - | - |
| 1778121434 | 26.11° C | 50% | 1007.5 hPa | 0 mm | - | - | - |
| 1778119634 | 25.56° C | 51% | 1007.8 hPa | 0 mm | - | - | - |
| 1778116030 | 24.44° C | 55% | 1008.3 hPa | 0 mm | - | - | - |
| 1778112430 | 22.78° C | 59% | 1009 hPa | 0 mm | - | - | - |
| 1778108832 | 20° C | 70% | 1009.6 hPa | 0 mm | - | - | - |
| 1778107032 | 18.89° C | 75% | 1010 hPa | 0 mm | - | - | - |
| 1778103433 | 17.22° C | 83% | 1010.1 hPa | 0 mm | - | - | - |
| 1778098031 | 16.11° C | 83% | 1010 hPa | 0 mm | - | - | - |
| 1778096231 | 16.11° C | 82% | 1010.2 hPa | 0 mm | - | - | - |
| 1778094432 | 16.67° C | 82% | 1010.2 hPa | 0 mm | - | - | - |
| 1778092632 | 16.67° C | 82% | 1010.5 hPa | 0 mm | - | - | - |
| 1778090832 | 16.67° C | 82% | 1011 hPa | 0 mm | - | - | - |
* Rain latest hour (hover to see other rain measurements)
** Current wind speed in m/s (hover to see current wind gust speed)